sensor_id;sensor_type;location;lat;lon;timestamp;pressure;altitude;pressure_sealevel;temperature;humidity
71774;BME280;59607;52.130;5.430;2023-05-03T00:01:32;103089.31;;;6.36;83.51
71774;BME280;59607;52.130;5.430;2023-05-03T00:04:04;103093.75;;;6.34;83.32
71774;BME280;59607;52.130;5.430;2023-05-03T00:06:31;103090.44;;;6.30;83.32
71774;BME280;59607;52.130;5.430;2023-05-03T00:08:57;103083.47;;;6.31;84.17
71774;BME280;59607;52.130;5.430;2023-05-03T00:11:24;103081.84;;;6.28;83.88
71774;BME280;59607;52.130;5.430;2023-05-03T00:13:56;103084.84;;;6.20;84.19
71774;BME280;59607;52.130;5.430;2023-05-03T00:16:23;103082.94;;;6.24;84.11
71774;BME280;59607;52.130;5.430;2023-05-03T00:18:50;103087.63;;;6.17;84.59
71774;BME280;59607;52.130;5.430;2023-05-03T00:21:22;103085.16;;;6.14;84.85
71774;BME280;59607;52.130;5.430;2023-05-03T00:23:48;103084.25;;;6.15;84.80
71774;BME280;59607;52.130;5.430;2023-05-03T00:26:31;103076.34;;;6.16;85.25
71774;BME280;59607;52.130;5.430;2023-05-03T00:28:59;103086.84;;;6.15;84.86
71774;BME280;59607;52.130;5.430;2023-05-03T00:31:33;103094.97;;;6.09;85.02
71774;BME280;59607;52.130;5.430;2023-05-03T00:34:03;103090.03;;;6.02;85.22
71774;BME280;59607;52.130;5.430;2023-05-03T00:36:32;103091.88;;;6.00;85.66
71774;BME280;59607;52.130;5.430;2023-05-03T00:39:01;103086.06;;;5.95;85.98
71774;BME280;59607;52.130;5.430;2023-05-03T00:41:33;103081.69;;;5.96;86.65
71774;BME280;59607;52.130;5.430;2023-05-03T00:44:00;103094.63;;;5.97;86.98
71774;BME280;59607;52.130;5.430;2023-05-03T00:46:29;103091.28;;;5.95;86.91
71774;BME280;59607;52.130;5.430;2023-05-03T00:48:56;103082.69;;;5.93;87.72
71774;BME280;59607;52.130;5.430;2023-05-03T00:51:25;103082.69;;;5.93;87.51
71774;BME280;59607;52.130;5.430;2023-05-03T00:53:58;103084.59;;;5.89;87.10
71774;BME280;59607;52.130;5.430;2023-05-03T00:56:25;103090.03;;;5.85;86.69
71774;BME280;59607;52.130;5.430;2023-05-03T00:58:51;103095.41;;;5.82;87.29
71774;BME280;59607;52.130;5.430;2023-05-03T01:01:22;103090.97;;;5.84;87.90
71774;BME280;59607;52.130;5.430;2023-05-03T01:03:49;103091.03;;;5.82;88.19
71774;BME280;59607;52.130;5.430;2023-05-03T01:12:43;103088.03;;;5.72;88.18
71774;BME280;59607;52.130;5.430;2023-05-03T01:15:59;103090.00;;;5.67;87.75
71774;BME280;59607;52.130;5.430;2023-05-03T01:18:37;103093.69;;;5.63;88.70
71774;BME280;59607;52.130;5.430;2023-05-03T01:21:07;103089.38;;;5.62;89.18
71774;BME280;59607;52.130;5.430;2023-05-03T01:26:43;103081.88;;;5.55;89.15
71774;BME280;59607;52.130;5.430;2023-05-03T01:29:15;103092.28;;;5.55;89.70
71774;BME280;59607;52.130;5.430;2023-05-03T01:32:22;103091.44;;;5.55;89.09
71774;BME280;59607;52.130;5.430;2023-05-03T01:38:04;103085.63;;;5.50;89.65
71774;BME280;59607;52.130;5.430;2023-05-03T01:40:52;103086.44;;;5.50;89.81
71774;BME280;59607;52.130;5.430;2023-05-03T01:43:21;103077.19;;;5.45;90.03
71774;BME280;59607;52.130;5.430;2023-05-03T01:45:48;103082.47;;;5.43;90.07
71774;BME280;59607;52.130;5.430;2023-05-03T01:48:16;103074.09;;;5.36;90.38
71774;BME280;59607;52.130;5.430;2023-05-03T01:51:12;103084.59;;;5.35;90.29
71774;BME280;59607;52.130;5.430;2023-05-03T01:53:39;103085.50;;;5.34;90.61
71774;BME280;59607;52.130;5.430;2023-05-03T01:56:10;103084.59;;;5.35;90.60
71774;BME280;59607;52.130;5.430;2023-05-03T01:58:43;103086.41;;;5.33;90.37
71774;BME280;59607;52.130;5.430;2023-05-03T02:01:12;103087.53;;;5.27;90.63
71774;BME280;59607;52.130;5.430;2023-05-03T02:03:46;103085.03;;;5.25;90.67
71774;BME280;59607;52.130;5.430;2023-05-03T02:06:13;103066.81;;;5.25;90.51
71774;BME280;59607;52.130;5.430;2023-05-03T02:08:48;103071.00;;;5.28;90.66
71774;BME280;59607;52.130;5.430;2023-05-03T02:11:19;103081.41;;;5.28;90.36
71774;BME280;59607;52.130;5.430;2023-05-03T02:13:50;103080.84;;;5.21;90.71
71774;BME280;59607;52.130;5.430;2023-05-03T02:16:19;103080.03;;;5.21;91.11
71774;BME280;59607;52.130;5.430;2023-05-03T02:18:46;103075.66;;;5.21;90.96
71774;BME280;59607;52.130;5.430;2023-05-03T02:21:13;103073.13;;;5.19;90.88
71774;BME280;59607;52.130;5.430;2023-05-03T02:23:43;103069.72;;;5.17;91.11
71774;BME280;59607;52.130;5.430;2023-05-03T02:26:12;103066.47;;;5.14;91.05
71774;BME280;59607;52.130;5.430;2023-05-03T02:28:38;103064.81;;;5.11;90.85
71774;BME280;59607;52.130;5.430;2023-05-03T02:31:08;103057.16;;;5.08;90.90
71774;BME280;59607;52.130;5.430;2023-05-03T02:33:37;103052.19;;;5.03;89.95
71774;BME280;59607;52.130;5.430;2023-05-03T02:36:21;103050.56;;;5.01;89.95
71774;BME280;59607;52.130;5.430;2023-05-03T02:38:47;103055.13;;;4.96;90.40
71774;BME280;59607;52.130;5.430;2023-05-03T02:41:20;103045.84;;;4.90;90.95
71774;BME280;59607;52.130;5.430;2023-05-03T02:43:47;103050.06;;;4.92;91.11
71774;BME280;59607;52.130;5.430;2023-05-03T02:46:13;103041.28;;;4.95;91.04
71774;BME280;59607;52.130;5.430;2023-05-03T02:48:45;103038.75;;;4.93;90.98
71774;BME280;59607;52.130;5.430;2023-05-03T02:51:11;103041.50;;;4.90;90.81
71774;BME280;59607;52.130;5.430;2023-05-03T02:53:48;103034.91;;;4.83;90.83
71774;BME280;59607;52.130;5.430;2023-05-03T02:56:14;103035.94;;;4.79;91.40
71774;BME280;59607;52.130;5.430;2023-05-03T02:58:41;103036.84;;;4.78;91.06
71774;BME280;59607;52.130;5.430;2023-05-03T03:01:13;103034.47;;;4.73;91.17
71774;BME280;59607;52.130;5.430;2023-05-03T03:03:39;103036.22;;;4.73;91.67
71774;BME280;59607;52.130;5.430;2023-05-03T03:06:08;103039.59;;;4.75;90.82
71774;BME280;59607;52.130;5.430;2023-05-03T03:08:36;103051.16;;;4.67;90.45
71774;BME280;59607;52.130;5.430;2023-05-03T03:11:03;103052.81;;;4.70;91.99
71774;BME280;59607;52.130;5.430;2023-05-03T03:13:35;103052.66;;;4.73;91.76
71774;BME280;59607;52.130;5.430;2023-05-03T03:16:06;103053.63;;;4.71;91.90
71774;BME280;59607;52.130;5.430;2023-05-03T03:18:36;103057.94;;;4.72;92.43
71774;BME280;59607;52.130;5.430;2023-05-03T03:21:03;103059.81;;;4.68;92.36
71774;BME280;59607;52.130;5.430;2023-05-03T03:23:29;103057.22;;;4.68;92.54
71774;BME280;59607;52.130;5.430;2023-05-03T03:25:59;103061.63;;;4.66;92.74
71774;BME280;59607;52.130;5.430;2023-05-03T03:28:29;103065.88;;;4.68;92.87
71774;BME280;59607;52.130;5.430;2023-05-03T03:30:55;103054.03;;;4.61;91.16
71774;BME280;59607;52.130;5.430;2023-05-03T03:33:42;103057.06;;;4.52;90.82
71774;BME280;59607;52.130;5.430;2023-05-03T03:36:11;103064.28;;;4.45;90.49
71774;BME280;59607;52.130;5.430;2023-05-03T03:38:37;103059.84;;;4.47;91.68
71774;BME280;59607;52.130;5.430;2023-05-03T03:41:04;103064.19;;;4.47;92.72
71774;BME280;59607;52.130;5.430;2023-05-03T03:43:31;103058.13;;;4.48;92.93
71774;BME280;59607;52.130;5.430;2023-05-03T03:45:57;103059.78;;;4.49;92.94
71774;BME280;59607;52.130;5.430;2023-05-03T03:48:24;103063.19;;;4.51;92.70
71774;BME280;59607;52.130;5.430;2023-05-03T03:50:51;103062.47;;;4.47;92.56
71774;BME280;59607;52.130;5.430;2023-05-03T03:53:21;103067.84;;;4.42;92.85
71774;BME280;59607;52.130;5.430;2023-05-03T03:55:47;103066.09;;;4.43;93.30
71774;BME280;59607;52.130;5.430;2023-05-03T03:58:13;103072.00;;;4.47;93.26
71774;BME280;59607;52.130;5.430;2023-05-03T04:00:40;103080.66;;;4.47;92.55
71774;BME280;59607;52.130;5.430;2023-05-03T04:03:10;103078.84;;;4.49;92.54
71774;BME280;59607;52.130;5.430;2023-05-03T04:05:37;103080.78;;;4.44;92.20
71774;BME280;59607;52.130;5.430;2023-05-03T04:08:06;103080.19;;;4.37;92.36
71774;BME280;59607;52.130;5.430;2023-05-03T04:10:35;103086.88;;;4.43;91.70
71774;BME280;59607;52.130;5.430;2023-05-03T04:13:02;103072.41;;;4.37;91.41
71774;BME280;59607;52.130;5.430;2023-05-03T04:15:28;103074.94;;;4.39;90.97
71774;BME280;59607;52.130;5.430;2023-05-03T04:17:55;103070.38;;;4.44;91.25
71774;BME280;59607;52.130;5.430;2023-05-03T04:20:21;103072.06;;;4.45;89.91
71774;BME280;59607;52.130;5.430;2023-05-03T04:22:48;103084.09;;;4.48;91.09
71774;BME280;59607;52.130;5.430;2023-05-03T04:25:20;103083.97;;;4.51;91.85
71774;BME280;59607;52.130;5.430;2023-05-03T04:27:47;103091.75;;;4.51;91.74
71774;BME280;59607;52.130;5.430;2023-05-03T04:30:14;103097.38;;;4.61;92.11
71774;BME280;59607;52.130;5.430;2023-05-03T04:32:44;103100.69;;;4.64;91.40
71774;BME280;59607;52.130;5.430;2023-05-03T04:35:10;103104.81;;;4.70;91.74
71774;BME280;59607;52.130;5.430;2023-05-03T04:37:41;103115.72;;;4.78;90.91
71774;BME280;59607;52.130;5.430;2023-05-03T04:40:08;103111.09;;;5.24;91.09
71774;BME280;59607;52.130;5.430;2023-05-03T04:42:39;103113.06;;;6.81;85.70
71774;BME280;59607;52.130;5.430;2023-05-03T04:45:06;103108.13;;;8.04;78.91
71774;BME280;59607;52.130;5.430;2023-05-03T04:47:38;103109.03;;;8.92;73.06
71774;BME280;59607;52.130;5.430;2023-05-03T04:50:08;103099.91;;;9.82;68.49
71774;BME280;59607;52.130;5.430;2023-05-03T04:52:43;103112.25;;;10.34;65.81
71774;BME280;59607;52.130;5.430;2023-05-03T04:55:10;103107.69;;;11.01;62.44
71774;BME280;59607;52.130;5.430;2023-05-03T04:57:41;103105.13;;;11.37;60.92
71774;BME280;59607;52.130;5.430;2023-05-03T05:00:12;103104.03;;;11.53;59.30
71774;BME280;59607;52.130;5.430;2023-05-03T05:02:41;103104.25;;;12.33;57.50
71774;BME280;59607;52.130;5.430;2023-05-03T05:05:11;103101.53;;;12.69;55.36
71774;BME280;59607;52.130;5.430;2023-05-03T05:07:48;103093.22;;;13.08;54.32
71774;BME280;59607;52.130;5.430;2023-05-03T05:10:17;103100.84;;;13.23;52.48
71774;BME280;59607;52.130;5.430;2023-05-03T05:12:47;103091.31;;;13.10;52.91
71774;BME280;59607;52.130;5.430;2023-05-03T05:15:14;103097.56;;;13.30;51.87
71774;BME280;59607;52.130;5.430;2023-05-03T05:17:43;103096.69;;;13.53;50.82
71774;BME280;59607;52.130;5.430;2023-05-03T05:20:10;103104.31;;;13.89;50.47
71774;BME280;59607;52.130;5.430;2023-05-03T05:22:42;103109.66;;;14.51;48.33
71774;BME280;59607;52.130;5.430;2023-05-03T05:25:17;103106.78;;;14.33;48.04
71774;BME280;59607;52.130;5.430;2023-05-03T05:27:47;103103.59;;;14.71;48.14
71774;BME280;59607;52.130;5.430;2023-05-03T05:30:19;103103.75;;;14.38;47.68
71774;BME280;59607;52.130;5.430;2023-05-03T05:32:45;103104.19;;;14.43;47.16
71774;BME280;59607;52.130;5.430;2023-05-03T05:35:15;103103.97;;;14.03;47.83
71774;BME280;59607;52.130;5.430;2023-05-03T05:37:48;103108.91;;;14.39;47.40
71774;BME280;59607;52.130;5.430;2023-05-03T05:40:23;103102.13;;;14.88;46.35
71774;BME280;59607;52.130;5.430;2023-05-03T05:42:49;103110.00;;;14.78;46.15
71774;BME280;59607;52.130;5.430;2023-05-03T05:45:18;103113.72;;;14.97;45.93
71774;BME280;59607;52.130;5.430;2023-05-03T05:47:48;103105.09;;;15.04;45.45
71774;BME280;59607;52.130;5.430;2023-05-03T05:50:14;103115.16;;;14.38;45.97
71774;BME280;59607;52.130;5.430;2023-05-03T05:52:45;103101.78;;;15.22;45.72
71774;BME280;59607;52.130;5.430;2023-05-03T05:55:19;103107.91;;;15.23;44.89
71774;BME280;59607;52.130;5.430;2023-05-03T05:57:52;103103.88;;;15.58;45.32
71774;BME280;59607;52.130;5.430;2023-05-03T06:00:19;103105.88;;;16.14;43.13
71774;BME280;59607;52.130;5.430;2023-05-03T06:02:46;103109.69;;;16.01;43.10
71774;BME280;59607;52.130;5.430;2023-05-03T06:05:17;103108.59;;;16.04;43.34
71774;BME280;59607;52.130;5.430;2023-05-03T06:07:43;103106.94;;;16.41;42.69
71774;BME280;59607;52.130;5.430;2023-05-03T06:10:14;103113.97;;;16.60;42.26
71774;BME280;59607;52.130;5.430;2023-05-03T06:12:40;103108.59;;;15.25;43.80
71774;BME280;59607;52.130;5.430;2023-05-03T06:15:07;103120.63;;;13.17;48.03
71774;BME280;59607;52.130;5.430;2023-05-03T06:17:34;103125.59;;;12.05;51.28
71774;BME280;59607;52.130;5.430;2023-05-03T06:20:13;103126.03;;;11.14;53.82
71774;BME280;59607;52.130;5.430;2023-05-03T06:22:43;103130.19;;;10.79;55.26
71774;BME280;59607;52.130;5.430;2023-05-03T06:25:33;103129.19;;;10.56;55.83
71774;BME280;59607;52.130;5.430;2023-05-03T06:28:03;103131.22;;;10.11;57.62
71774;BME280;59607;52.130;5.430;2023-05-03T06:30:33;103122.78;;;9.93;58.23
71774;BME280;59607;52.130;5.430;2023-05-03T06:33:03;103123.06;;;9.48;59.71
71774;BME280;59607;52.130;5.430;2023-05-03T06:35:33;103119.53;;;9.34;60.46
71774;BME280;59607;52.130;5.430;2023-05-03T06:38:00;103121.28;;;9.48;61.24
71774;BME280;59607;52.130;5.430;2023-05-03T06:40:27;103115.59;;;9.69;60.41
71774;BME280;59607;52.130;5.430;2023-05-03T06:42:59;103116.91;;;9.62;60.08
71774;BME280;59607;52.130;5.430;2023-05-03T06:45:25;103109.59;;;9.40;61.01
71774;BME280;59607;52.130;5.430;2023-05-03T06:47:56;103117.06;;;9.46;60.25
71774;BME280;59607;52.130;5.430;2023-05-03T06:50:25;103113.84;;;9.42;61.43
71774;BME280;59607;52.130;5.430;2023-05-03T06:52:53;103120.84;;;9.42;61.61
71774;BME280;59607;52.130;5.430;2023-05-03T06:55:19;103121.00;;;9.53;61.38
71774;BME280;59607;52.130;5.430;2023-05-03T06:57:45;103112.38;;;9.79;60.57
71774;BME280;59607;52.130;5.430;2023-05-03T07:00:16;103106.47;;;9.75;58.96
71774;BME280;59607;52.130;5.430;2023-05-03T07:02:49;103111.56;;;9.63;60.02
71774;BME280;59607;52.130;5.430;2023-05-03T07:05:15;103109.22;;;9.86;60.23
71774;BME280;59607;52.130;5.430;2023-05-03T07:07:42;103108.22;;;10.02;58.99
71774;BME280;59607;52.130;5.430;2023-05-03T07:10:13;103103.91;;;10.01;58.08
71774;BME280;59607;52.130;5.430;2023-05-03T07:12:39;103102.28;;;10.26;58.80
71774;BME280;59607;52.130;5.430;2023-05-03T07:15:10;103097.47;;;10.33;58.72
71774;BME280;59607;52.130;5.430;2023-05-03T07:17:36;103099.13;;;10.21;57.86
71774;BME280;59607;52.130;5.430;2023-05-03T07:20:03;103094.09;;;10.18;58.04
71774;BME280;59607;52.130;5.430;2023-05-03T07:22:40;103093.09;;;9.93;57.79
71774;BME280;59607;52.130;5.430;2023-05-03T07:25:06;103097.66;;;10.04;58.22
71774;BME280;59607;52.130;5.430;2023-05-03T07:27:35;103092.28;;;10.05;57.69
71774;BME280;59607;52.130;5.430;2023-05-03T07:30:08;103082.94;;;10.14;57.60
71774;BME280;59607;52.130;5.430;2023-05-03T07:32:35;103082.75;;;10.17;57.68
71774;BME280;59607;52.130;5.430;2023-05-03T07:35:11;103072.47;;;10.40;58.10
71774;BME280;59607;52.130;5.430;2023-05-03T07:37:41;103072.69;;;10.37;57.24
71774;BME280;59607;52.130;5.430;2023-05-03T07:40:10;103070.06;;;10.37;56.63
71774;BME280;59607;52.130;5.430;2023-05-03T07:42:37;103071.53;;;10.28;57.06
71774;BME280;59607;52.130;5.430;2023-05-03T07:45:08;103062.41;;;10.34;57.16
71774;BME280;59607;52.130;5.430;2023-05-03T07:47:34;103064.06;;;10.35;57.40
71774;BME280;59607;52.130;5.430;2023-05-03T07:50:06;103060.19;;;10.41;57.24
71774;BME280;59607;52.130;5.430;2023-05-03T07:52:37;103056.63;;;10.55;56.73
71774;BME280;59607;52.130;5.430;2023-05-03T07:55:05;103060.84;;;10.44;56.82
71774;BME280;59607;52.130;5.430;2023-05-03T07:57:42;103051.44;;;10.79;56.80
71774;BME280;59607;52.130;5.430;2023-05-03T08:00:12;103053.09;;;10.80;56.56
71774;BME280;59607;52.130;5.430;2023-05-03T08:02:44;103051.34;;;10.81;55.33
71774;BME280;59607;52.130;5.430;2023-05-03T08:05:11;103050.28;;;10.83;55.63
71774;BME280;59607;52.130;5.430;2023-05-03T08:07:40;103044.78;;;11.00;55.13
71774;BME280;59607;52.130;5.430;2023-05-03T08:10:07;103046.00;;;11.07;55.00
71774;BME280;59607;52.130;5.430;2023-05-03T08:12:34;103049.81;;;11.03;54.42
71774;BME280;59607;52.130;5.430;2023-05-03T08:15:04;103041.72;;;11.06;54.33
71774;BME280;59607;52.130;5.430;2023-05-03T08:17:45;103048.41;;;11.10;54.18
71774;BME280;59607;52.130;5.430;2023-05-03T08:20:15;103047.03;;;11.17;54.70
71774;BME280;59607;52.130;5.430;2023-05-03T08:22:50;103045.53;;;11.62;54.64
71774;BME280;59607;52.130;5.430;2023-05-03T08:25:22;103042.03;;;11.62;53.90
71774;BME280;59607;52.130;5.430;2023-05-03T08:27:53;103038.50;;;11.74;53.66
71774;BME280;59607;52.130;5.430;2023-05-03T08:30:24;103032.75;;;11.69;52.85
71774;BME280;59607;52.130;5.430;2023-05-03T08:32:55;103023.09;;;11.69;52.68
71774;BME280;59607;52.130;5.430;2023-05-03T08:35:21;103023.09;;;11.69;52.92
71774;BME280;59607;52.130;5.430;2023-05-03T08:37:48;103022.22;;;11.57;52.62
71774;BME280;59607;52.130;5.430;2023-05-03T08:40:15;103031.50;;;11.50;52.75
71774;BME280;59607;52.130;5.430;2023-05-03T08:42:47;103026.63;;;11.57;52.05
71774;BME280;59607;52.130;5.430;2023-05-03T08:45:15;103023.66;;;11.62;52.24
71774;BME280;59607;52.130;5.430;2023-05-03T08:47:44;103032.28;;;11.75;52.06
71774;BME280;59607;52.130;5.430;2023-05-03T08:50:19;103041.78;;;12.01;51.69
71774;BME280;59607;52.130;5.430;2023-05-03T08:52:53;103030.13;;;12.16;51.86
71774;BME280;59607;52.130;5.430;2023-05-03T08:55:19;103040.53;;;12.41;50.87
71774;BME280;59607;52.130;5.430;2023-05-03T08:57:47;103035.97;;;12.20;50.68
71774;BME280;59607;52.130;5.430;2023-05-03T09:00:17;103042.06;;;12.20;51.08
71774;BME280;59607;52.130;5.430;2023-05-03T09:02:44;103040.41;;;12.42;50.94
71774;BME280;59607;52.130;5.430;2023-05-03T09:08:04;103037.75;;;12.54;50.04
71774;BME280;59607;52.130;5.430;2023-05-03T09:10:33;103040.03;;;12.70;50.49
71774;BME280;59607;52.130;5.430;2023-05-03T09:13:02;103043.19;;;12.96;49.19
71774;BME280;59607;52.130;5.430;2023-05-03T09:15:29;103048.38;;;12.64;49.78
71774;BME280;59607;52.130;5.430;2023-05-03T09:18:17;103051.88;;;12.64;50.19
71774;BME280;59607;52.130;5.430;2023-05-03T09:20:48;103053.78;;;12.51;49.94
71774;BME280;59607;52.130;5.430;2023-05-03T09:23:29;103047.94;;;12.36;48.89
71774;BME280;59607;52.130;5.430;2023-05-03T09:25:57;103058.66;;;12.67;49.85
71774;BME280;59607;52.130;5.430;2023-05-03T09:28:24;103051.09;;;12.85;49.51
71774;BME280;59607;52.130;5.430;2023-05-03T09:31:09;103057.97;;;12.65;50.02
71774;BME280;59607;52.130;5.430;2023-05-03T09:33:43;103045.19;;;12.60;50.81
71774;BME280;59607;52.130;5.430;2023-05-03T09:36:43;103043.63;;;12.57;50.28
71774;BME280;59607;52.130;5.430;2023-05-03T09:39:20;103054.50;;;12.64;50.18
71774;BME280;59607;52.130;5.430;2023-05-03T09:41:46;103051.72;;;12.77;50.17
71774;BME280;59607;52.130;5.430;2023-05-03T09:44:44;103051.91;;;13.08;49.70
71774;BME280;59607;52.130;5.430;2023-05-03T09:47:22;103050.44;;;13.16;49.07
71774;BME280;59607;52.130;5.430;2023-05-03T09:49:50;103050.47;;;13.04;48.66
71774;BME280;59607;52.130;5.430;2023-05-03T09:52:28;103049.88;;;13.33;48.77
71774;BME280;59607;52.130;5.430;2023-05-03T09:54:56;103042.34;;;13.29;48.31
71774;BME280;59607;52.130;5.430;2023-05-03T09:57:24;103042.34;;;13.29;49.28
71774;BME280;59607;52.130;5.430;2023-05-03T09:59:58;103034.38;;;13.52;48.44
71774;BME280;59607;52.130;5.430;2023-05-03T10:02:32;103035.25;;;13.84;47.66
71774;BME280;59607;52.130;5.430;2023-05-03T10:04:59;103037.75;;;13.75;47.82
71774;BME280;59607;52.130;5.430;2023-05-03T10:07:27;103029.03;;;13.85;47.37
71774;BME280;59607;52.130;5.430;2023-05-03T10:09:58;103023.44;;;13.99;47.69
71774;BME280;59607;52.130;5.430;2023-05-03T10:12:26;103020.47;;;14.24;46.78
71774;BME280;59607;52.130;5.430;2023-05-03T10:14:54;103019.50;;;14.25;45.68
71774;BME280;59607;52.130;5.430;2023-05-03T10:17:27;103024.63;;;13.95;46.67
71774;BME280;59607;52.130;5.430;2023-05-03T10:20:34;103024.56;;;13.75;47.47
71774;BME280;59607;52.130;5.430;2023-05-03T10:23:25;103026.66;;;13.81;47.71
71774;BME280;59607;52.130;5.430;2023-05-03T10:28:38;102997.72;;;14.32;46.85
71774;BME280;59607;52.130;5.430;2023-05-03T10:31:45;102994.94;;;14.34;46.78
71774;BME280;59607;52.130;5.430;2023-05-03T10:34:20;102996.50;;;14.37;45.14
71774;BME280;59607;52.130;5.430;2023-05-03T10:36:52;102999.63;;;14.21;45.60
71774;BME280;59607;52.130;5.430;2023-05-03T10:39:20;102998.09;;;14.69;45.93
71774;BME280;59607;52.130;5.430;2023-05-03T10:42:02;102992.63;;;14.51;45.64
71774;BME280;59607;52.130;5.430;2023-05-03T10:44:56;102996.94;;;14.62;46.57
71774;BME280;59607;52.130;5.430;2023-05-03T10:47:23;102998.53;;;14.84;44.68
71774;BME280;59607;52.130;5.430;2023-05-03T10:52:46;103001.03;;;14.76;44.65
71774;BME280;59607;52.130;5.430;2023-05-03T10:55:22;103002.03;;;14.95;44.77
71774;BME280;59607;52.130;5.430;2023-05-03T10:58:04;102992.72;;;15.00;43.86
71774;BME280;59607;52.130;5.430;2023-05-03T11:00:38;102993.63;;;14.69;44.61
71774;BME280;59607;52.130;5.430;2023-05-03T11:05:59;102981.16;;;15.01;44.19
71774;BME280;59607;52.130;5.430;2023-05-03T11:08:31;102983.09;;;15.19;45.21
71774;BME280;59607;52.130;5.430;2023-05-03T11:11:12;102977.38;;;15.44;43.60
71774;BME280;59607;52.130;5.430;2023-05-03T11:13:39;102981.00;;;15.33;43.05
71774;BME280;59607;52.130;5.430;2023-05-03T11:16:13;102968.47;;;14.75;43.46
71774;BME280;59607;52.130;5.430;2023-05-03T11:18:40;102967.66;;;14.85;43.60
71774;BME280;59607;52.130;5.430;2023-05-03T11:21:07;102962.38;;;14.95;43.88
71774;BME280;59607;52.130;5.430;2023-05-03T11:23:50;102962.09;;;15.17;43.16
71774;BME280;59607;52.130;5.430;2023-05-03T11:26:19;102954.97;;;15.38;44.07
71774;BME280;59607;52.130;5.430;2023-05-03T11:28:52;102950.69;;;15.75;42.50
71774;BME280;59607;52.130;5.430;2023-05-03T11:31:23;102950.16;;;15.71;42.95
71774;BME280;59607;52.130;5.430;2023-05-03T11:33:49;102942.19;;;15.81;42.24
71774;BME280;59607;52.130;5.430;2023-05-03T11:36:18;102946.22;;;15.75;42.06
71774;BME280;59607;52.130;5.430;2023-05-03T11:38:48;102950.25;;;15.79;42.19
71774;BME280;59607;52.130;5.430;2023-05-03T11:41:16;102940.84;;;16.05;41.78
71774;BME280;59607;52.130;5.430;2023-05-03T11:43:50;102933.97;;;16.12;41.92
71774;BME280;59607;52.130;5.430;2023-05-03T11:46:36;102932.63;;;16.26;41.83
71774;BME280;59607;52.130;5.430;2023-05-03T11:49:06;102933.34;;;16.00;40.99
71774;BME280;59607;52.130;5.430;2023-05-03T11:51:39;102929.91;;;15.80;41.46
71774;BME280;59607;52.130;5.430;2023-05-03T11:54:07;102933.91;;;15.94;41.48
71774;BME280;59607;52.130;5.430;2023-05-03T11:56:58;102933.06;;;16.03;41.36
71774;BME280;59607;52.130;5.430;2023-05-03T11:59:39;102931.97;;;15.86;41.84
71774;BME280;59607;52.130;5.430;2023-05-03T12:02:08;102930.00;;;15.98;40.42
71774;BME280;59607;52.130;5.430;2023-05-03T12:04:42;102923.47;;;16.21;40.55
71774;BME280;59607;52.130;5.430;2023-05-03T12:07:12;102921.28;;;16.34;40.15
71774;BME280;59607;52.130;5.430;2023-05-03T12:09:48;102911.38;;;16.55;39.75
71774;BME280;59607;52.130;5.430;2023-05-03T12:12:37;102907.84;;;16.64;39.76
71774;BME280;59607;52.130;5.430;2023-05-03T12:15:11;102908.22;;;16.33;40.62
71774;BME280;59607;52.130;5.430;2023-05-03T12:17:43;102892.00;;;16.36;40.86
71774;BME280;59607;52.130;5.430;2023-05-03T12:20:22;102898.13;;;16.18;40.79
71774;BME280;59607;52.130;5.430;2023-05-03T12:23:13;102886.50;;;16.47;40.44
71774;BME280;59607;52.130;5.430;2023-05-03T12:25:50;102885.56;;;16.57;41.20
71774;BME280;59607;52.130;5.430;2023-05-03T12:28:25;102887.91;;;16.60;40.53
71774;BME280;59607;52.130;5.430;2023-05-03T12:30:52;102882.25;;;16.55;40.32
71774;BME280;59607;52.130;5.430;2023-05-03T12:33:23;102881.66;;;16.43;41.03
71774;BME280;59607;52.130;5.430;2023-05-03T12:35:50;102878.78;;;16.54;41.05
71774;BME280;59607;52.130;5.430;2023-05-03T12:38:22;102875.13;;;16.73;40.51
71774;BME280;59607;52.130;5.430;2023-05-03T12:40:56;102873.81;;;16.77;40.50
71774;BME280;59607;52.130;5.430;2023-05-03T12:43:24;102863.34;;;17.12;40.74
71774;BME280;59607;52.130;5.430;2023-05-03T12:45:51;102863.19;;;16.96;39.94
71774;BME280;59607;52.130;5.430;2023-05-03T12:48:34;102860.66;;;16.68;40.37
71774;BME280;59607;52.130;5.430;2023-05-03T12:51:11;102856.06;;;16.51;39.88
71774;BME280;59607;52.130;5.430;2023-05-03T12:53:45;102849.47;;;16.74;40.74
71774;BME280;59607;52.130;5.430;2023-05-03T12:56:22;102845.59;;;16.68;40.12
71774;BME280;59607;52.130;5.430;2023-05-03T12:58:52;102843.53;;;16.80;40.37
71774;BME280;59607;52.130;5.430;2023-05-03T13:01:39;102833.03;;;16.97;39.21
71774;BME280;59607;52.130;5.430;2023-05-03T13:04:30;102835.91;;;17.03;39.98
71774;BME280;59607;52.130;5.430;2023-05-03T13:07:00;102826.56;;;17.18;39.42
71774;BME280;59607;52.130;5.430;2023-05-03T13:09:28;102833.97;;;16.87;39.26
71774;BME280;59607;52.130;5.430;2023-05-03T13:12:11;102830.94;;;16.82;39.14
71774;BME280;59607;52.130;5.430;2023-05-03T13:14:41;102824.38;;;16.86;39.51
71774;BME280;59607;52.130;5.430;2023-05-03T13:17:08;102820.88;;;16.86;39.42
71774;BME280;59607;52.130;5.430;2023-05-03T13:19:45;102821.28;;;16.73;39.75
71774;BME280;59607;52.130;5.430;2023-05-03T13:22:13;102815.59;;;16.59;40.00
71774;BME280;59607;52.130;5.430;2023-05-03T13:24:44;102800.94;;;16.73;40.54
71774;BME280;59607;52.130;5.430;2023-05-03T13:27:14;102798.84;;;16.85;38.91
71774;BME280;59607;52.130;5.430;2023-05-03T13:29:50;102798.19;;;16.83;39.54
71774;BME280;59607;52.130;5.430;2023-05-03T13:32:16;102790.94;;;16.94;38.52
71774;BME280;59607;52.130;5.430;2023-05-03T13:34:43;102795.94;;;16.70;39.22
71774;BME280;59607;52.130;5.430;2023-05-03T13:37:09;102790.72;;;16.87;39.28
71774;BME280;59607;52.130;5.430;2023-05-03T13:39:44;102797.13;;;17.02;39.29
71774;BME280;59607;52.130;5.430;2023-05-03T13:42:17;102779.00;;;17.24;39.41